createdAt,value
2019-04-25T00:00:36.513Z,15.20
2019-04-25T00:03:05.971Z,15.20
2019-04-25T00:05:35.373Z,15.20
2019-04-25T00:08:04.785Z,15.20
2019-04-25T00:10:33.872Z,15.20
2019-04-25T00:13:03.623Z,15.10
2019-04-25T00:15:35.335Z,15.10
2019-04-25T00:18:04.510Z,15.00
2019-04-25T00:20:35.179Z,15.00
2019-04-25T00:23:07.720Z,15.00
2019-04-25T00:25:48.057Z,15.00
2019-04-25T00:28:17.502Z,15.00
2019-04-25T00:30:46.596Z,15.00
2019-04-25T00:33:15.690Z,14.90
2019-04-25T00:35:45.658Z,14.90
2019-04-25T00:38:14.834Z,14.90
2019-04-25T00:40:48.070Z,14.90
2019-04-25T00:43:25.240Z,14.90
2019-04-25T00:45:54.373Z,14.80
2019-04-25T00:48:28.442Z,14.90
2019-04-25T00:51:01.821Z,14.90
2019-04-25T00:53:34.198Z,14.90
2019-04-25T00:56:05.861Z,14.80
2019-04-25T00:58:39.005Z,14.80
2019-04-25T01:01:24.991Z,14.80
2019-04-25T01:03:56.641Z,14.80
2019-04-25T01:06:25.737Z,14.80
2019-04-25T01:08:55.899Z,14.70
2019-04-25T01:11:24.981Z,14.70
2019-04-25T01:13:54.430Z,14.70
2019-04-25T01:16:24.753Z,14.70
2019-04-25T01:18:54.806Z,14.70
2019-04-25T01:21:28.318Z,14.70
2019-04-25T01:23:57.737Z,14.70
2019-04-25T01:26:26.892Z,14.70
2019-04-25T01:28:56.055Z,14.60
2019-04-25T01:31:27.847Z,14.60
2019-04-25T01:33:59.354Z,14.60
2019-04-25T01:36:30.086Z,14.60
2019-04-25T01:39:04.305Z,14.60
2019-04-25T01:41:41.223Z,14.60
2019-04-25T01:44:17.898Z,14.50
2019-04-25T01:46:48.176Z,14.50
2019-04-25T01:49:17.523Z,14.50
2019-04-25T01:51:48.805Z,14.50
2019-04-25T01:54:21.037Z,14.50
2019-04-25T01:56:50.823Z,14.50
2019-04-25T01:59:27.725Z,14.50
2019-04-25T02:01:56.862Z,14.40
2019-04-25T02:04:26.013Z,14.40
2019-04-25T02:06:56.985Z,14.40
2019-04-25T02:09:27.059Z,14.30
2019-04-25T02:12:01.537Z,14.30
2019-04-25T02:14:33.657Z,14.30
2019-04-25T02:17:04.428Z,14.20
2019-04-25T02:19:37.479Z,14.20
2019-04-25T02:22:06.571Z,14.20
2019-04-25T02:24:36.284Z,14.10
2019-04-25T02:27:09.690Z,14.10
2019-04-25T02:29:38.775Z,14.10
2019-04-25T02:32:09.149Z,14.10
2019-04-25T02:34:38.395Z,14.10
2019-04-25T02:37:09.612Z,14.10
2019-04-25T02:39:41.506Z,14.10
2019-04-25T02:42:10.905Z,14.20
2019-04-25T02:44:41.645Z,14.20
2019-04-25T02:47:14.669Z,14.20
2019-04-25T02:49:55.807Z,14.20
2019-04-25T02:52:28.995Z,14.20
2019-04-25T02:54:58.777Z,14.20
2019-04-25T02:57:28.062Z,14.20
2019-04-25T03:00:03.623Z,14.20
2019-04-25T03:02:34.300Z,14.10
2019-04-25T03:05:09.126Z,14.10
2019-04-25T03:07:37.184Z,14.20
2019-04-25T03:10:09.794Z,14.10
2019-04-25T03:12:40.107Z,14.10
2019-04-25T03:15:11.842Z,14.10
2019-04-25T03:17:45.593Z,14.10
2019-04-25T03:20:19.140Z,14.00
2019-04-25T03:22:54.478Z,14.10
2019-04-25T03:25:25.016Z,14.10
2019-04-25T03:27:54.307Z,14.10
2019-04-25T03:30:25.509Z,14.10
2019-04-25T03:32:56.177Z,14.10
2019-04-25T03:35:24.767Z,14.10
2019-04-25T03:37:54.495Z,14.10
2019-04-25T03:40:23.677Z,14.10
2019-04-25T03:42:53.814Z,14.10
2019-04-25T03:45:23.694Z,14.10
2019-04-25T03:47:54.334Z,14.10
2019-04-25T03:50:23.534Z,14.10
2019-04-25T03:52:53.988Z,14.10
2019-04-25T03:55:24.069Z,14.10
2019-04-25T03:57:53.913Z,14.10
2019-04-25T04:00:24.102Z,14.10
2019-04-25T04:02:53.845Z,14.10
2019-04-25T04:05:27.567Z,14.20
2019-04-25T04:07:55.596Z,14.20
2019-04-25T04:10:24.690Z,14.20
2019-04-25T04:12:54.239Z,14.20
2019-04-25T04:15:25.154Z,14.30
2019-04-25T04:18:02.008Z,14.30
2019-04-25T04:20:35.430Z,14.30
2019-04-25T04:23:09.213Z,14.30
2019-04-25T04:25:38.717Z,14.30
2019-04-25T04:28:10.269Z,14.40
2019-04-25T04:30:40.519Z,14.40
2019-04-25T04:33:22.169Z,14.40
2019-04-25T04:35:41.761Z,14.40
2019-04-25T04:38:11.609Z,14.50
2019-04-25T04:40:41.783Z,14.50
2019-04-25T04:43:11.678Z,14.60
2019-04-25T04:45:43.122Z,14.70
2019-04-25T04:48:15.506Z,14.70
2019-04-25T04:50:45.667Z,14.80
2019-04-25T04:53:18.993Z,14.90
2019-04-25T04:55:48.235Z,15.00
2019-04-25T04:58:25.006Z,15.10
2019-04-25T05:00:56.610Z,15.20
2019-04-25T05:03:34.388Z,15.20
2019-04-25T05:06:04.273Z,15.30
2019-04-25T05:08:37.770Z,15.30
2019-04-25T05:11:06.858Z,15.30
2019-04-25T05:13:35.953Z,15.30
2019-04-25T05:16:05.050Z,15.30
2019-04-25T05:18:39.549Z,15.40
2019-04-25T05:21:04.776Z,15.50
2019-04-25T05:23:34.950Z,15.60
2019-04-25T05:26:04.417Z,15.70
2019-04-25T05:28:33.599Z,15.90
2019-04-25T05:31:04.374Z,15.90
2019-04-25T05:33:36.732Z,16.00
2019-04-25T05:36:08.353Z,16.20
2019-04-25T05:38:39.229Z,16.10
2019-04-25T05:41:10.472Z,16.20
2019-04-25T05:43:39.635Z,16.30
2019-04-25T05:46:08.743Z,16.50
2019-04-25T05:48:37.925Z,16.60
2019-04-25T05:51:07.068Z,16.70
2019-04-25T05:53:36.231Z,16.70
2019-04-25T05:56:05.313Z,16.80
2019-04-25T05:58:38.842Z,17.00
2019-04-25T06:01:07.184Z,17.20
2019-04-25T06:03:38.457Z,17.50
2019-04-25T06:06:07.525Z,17.70
2019-04-25T06:08:38.259Z,17.70
2019-04-25T06:11:26.131Z,17.80
2019-04-25T06:14:07.011Z,17.90
2019-04-25T06:16:37.288Z,17.90
2019-04-25T06:19:14.001Z,18.00
2019-04-25T06:21:43.377Z,18.30
2019-04-25T06:24:20.463Z,18.50
2019-04-25T06:26:53.949Z,18.60
2019-04-25T06:29:26.027Z,19.10
2019-04-25T06:32:06.597Z,19.70
2019-04-25T06:34:31.683Z,20.60
2019-04-25T06:37:02.520Z,21.70
2019-04-25T06:39:33.931Z,23.30
2019-04-25T06:42:03.985Z,24.00
2019-04-25T06:44:37.471Z,24.50
2019-04-25T06:47:08.101Z,25.20
2019-04-25T06:49:39.871Z,25.20
2019-04-25T06:52:10.049Z,25.60
2019-04-25T06:54:39.994Z,26.40
2019-04-25T06:57:08.986Z,26.60
2019-04-25T06:59:41.237Z,27.30
2019-04-25T07:02:08.633Z,27.40
2019-04-25T07:04:38.539Z,27.90
2019-04-25T07:07:14.845Z,28.40
2019-04-25T07:09:45.753Z,28.90
2019-04-25T07:12:19.586Z,28.90
2019-04-25T07:14:48.728Z,28.70
2019-04-25T07:17:17.824Z,28.40
2019-04-25T07:19:47.020Z,28.40
2019-04-25T07:22:18.073Z,28.20
2019-04-25T07:24:47.153Z,28.60
2019-04-25T07:27:24.784Z,28.90
2019-04-25T07:29:56.100Z,29.20
2019-04-25T07:32:35.749Z,28.90
2019-04-25T07:35:06.471Z,28.60
2019-04-25T07:37:39.051Z,28.70
2019-04-25T07:40:10.190Z,28.90
2019-04-25T07:42:39.284Z,28.00
2019-04-25T07:45:09.808Z,27.90
2019-04-25T07:47:44.163Z,27.50
2019-04-25T07:50:15.394Z,27.60
2019-04-25T07:52:51.407Z,27.80
2019-04-25T07:55:25.544Z,28.40
2019-04-25T07:57:57.098Z,29.00
2019-04-25T08:00:31.368Z,29.00
2019-04-25T08:03:00.511Z,28.70
2019-04-25T08:05:29.618Z,29.20
2019-04-25T08:07:58.804Z,29.30
2019-04-25T08:10:30.276Z,29.00
2019-04-25T08:13:04.973Z,29.20
2019-04-25T08:15:36.265Z,29.60
2019-04-25T08:18:08.808Z,29.20
2019-04-25T08:20:41.443Z,29.00
2019-04-25T08:23:14.175Z,29.00
2019-04-25T08:25:44.519Z,29.00
2019-04-25T08:28:13.874Z,29.50
2019-04-25T08:30:43.671Z,29.40
2019-04-25T08:33:13.995Z,29.30
2019-04-25T08:36:03.006Z,29.30
2019-04-25T08:38:13.998Z,29.20
2019-04-25T08:40:44.176Z,28.70
2019-04-25T08:43:14.659Z,28.60
2019-04-25T08:45:44.242Z,28.80
2019-04-25T08:48:14.586Z,29.10
2019-04-25T08:50:54.384Z,28.30
2019-04-25T08:53:26.096Z,27.60
2019-04-25T08:56:09.471Z,27.00
2019-04-25T08:58:43.625Z,27.20
2019-04-25T09:01:27.310Z,26.60
2019-04-25T09:04:14.322Z,26.10
2019-04-25T09:06:44.283Z,25.10
2019-04-25T09:09:13.708Z,24.00
2019-04-25T09:11:44.643Z,23.50
2019-04-25T09:14:15.487Z,23.40
2019-04-25T09:16:48.091Z,23.50
2019-04-25T09:19:17.964Z,23.60
2019-04-25T09:21:49.436Z,23.60
2019-04-25T09:24:17.652Z,23.60
2019-04-25T09:26:46.730Z,23.50
2019-04-25T09:29:19.415Z,23.50
2019-04-25T09:31:46.447Z,23.50
2019-04-25T09:34:21.279Z,23.60
2019-04-25T09:36:50.373Z,23.50
2019-04-25T09:39:23.635Z,23.30
2019-04-25T09:41:53.518Z,23.20
2019-04-25T09:44:27.081Z,23.10
2019-04-25T09:46:56.275Z,23.10
2019-04-25T09:49:33.885Z,23.00
2019-04-25T09:52:05.136Z,23.10
2019-04-25T09:54:38.142Z,23.20
2019-04-25T09:57:28.293Z,23.40
2019-04-25T09:59:57.384Z,23.40
2019-04-25T10:02:27.098Z,23.50
2019-04-25T10:04:58.716Z,23.40
2019-04-25T10:07:30.852Z,23.50
2019-04-25T10:10:03.761Z,23.30
2019-04-25T10:12:34.162Z,23.20
2019-04-25T10:15:09.463Z,23.20
2019-04-25T10:17:39.273Z,23.30
2019-04-25T10:20:08.783Z,23.40
2019-04-25T10:22:38.086Z,23.40
2019-04-25T10:25:08.413Z,23.50
2019-04-25T10:27:40.830Z,23.60
2019-04-25T10:30:17.717Z,23.60
2019-04-25T10:32:42.570Z,23.50
2019-04-25T10:35:14.628Z,23.50
2019-04-25T10:37:43.720Z,23.40
2019-04-25T10:40:17.306Z,23.50
2019-04-25T10:42:50.736Z,23.60
2019-04-25T10:45:23.379Z,23.70
2019-04-25T10:47:54.645Z,23.70
2019-04-25T10:50:23.902Z,23.80
2019-04-25T10:52:58.054Z,23.80
2019-04-25T10:55:27.135Z,23.70
2019-04-25T10:57:57.255Z,23.70
2019-04-25T11:00:28.515Z,23.70
2019-04-25T11:03:03.921Z,23.90
2019-04-25T11:05:34.267Z,23.90
2019-04-25T11:08:10.016Z,23.90
2019-04-25T11:10:39.717Z,23.80
2019-04-25T11:13:09.639Z,23.80
2019-04-25T11:15:39.767Z,23.80
2019-04-25T11:18:08.953Z,23.70
2019-04-25T11:20:38.458Z,23.60
2019-04-25T11:23:10.218Z,23.50
2019-04-25T11:25:39.313Z,23.40
2019-04-25T11:28:11.277Z,23.50
2019-04-25T11:30:41.830Z,23.60
2019-04-25T11:33:12.228Z,23.80
2019-04-25T11:35:41.527Z,23.70
2019-04-25T11:38:17.087Z,23.80
2019-04-25T11:40:55.766Z,24.00
2019-04-25T11:43:33.741Z,24.00
2019-04-25T11:46:04.948Z,24.00
2019-04-25T11:48:34.273Z,24.00
2019-04-25T11:51:05.087Z,24.10
2019-04-25T11:53:34.200Z,23.90
2019-04-25T11:56:03.675Z,24.00
2019-04-25T11:58:34.309Z,24.00
2019-04-25T12:01:05.139Z,24.10
2019-04-25T12:03:36.700Z,24.10
2019-04-25T12:06:06.401Z,24.00
2019-04-25T12:08:37.718Z,23.80
2019-04-25T12:11:13.750Z,23.70
2019-04-25T12:13:46.922Z,24.00
2019-04-25T12:16:19.070Z,24.10
2019-04-25T12:18:50.349Z,24.20
2019-04-25T12:21:21.345Z,24.30
2019-04-25T12:23:53.002Z,24.40
2019-04-25T12:26:22.096Z,24.50
2019-04-25T12:28:56.401Z,24.20
2019-04-25T12:31:25.514Z,24.50
2019-04-25T12:36:24.871Z,25.00
2019-04-25T12:38:55.566Z,25.30
2019-04-25T12:41:27.109Z,25.40
2019-04-25T12:44:03.674Z,25.20
2019-04-25T12:46:34.850Z,25.00
2019-04-25T12:49:05.833Z,24.80
2019-04-25T12:51:46.508Z,24.50
2019-04-25T12:54:15.623Z,24.30
2019-04-25T12:56:50.351Z,24.40
2019-04-25T12:59:20.063Z,24.40
2019-04-25T13:01:49.508Z,24.50
2019-04-25T13:04:18.864Z,24.60
2019-04-25T13:06:50.465Z,24.70
2019-04-25T13:09:24.050Z,24.80
2019-04-25T13:11:53.426Z,25.00
2019-04-25T13:14:23.013Z,24.90
2019-04-25T13:16:53.424Z,24.80
2019-04-25T13:19:24.633Z,24.80
2019-04-25T13:21:55.839Z,24.70
2019-04-25T13:24:28.565Z,24.60
2019-04-25T13:27:18.306Z,24.40
2019-04-25T13:29:53.239Z,24.40
2019-04-25T13:32:36.190Z,24.50
2019-04-25T13:35:17.368Z,24.40
2019-04-25T13:37:47.969Z,24.40
2019-04-25T13:40:17.510Z,24.20
2019-04-25T13:42:47.684Z,24.20
2019-04-25T13:45:20.976Z,24.00
2019-04-25T13:47:50.076Z,23.90
2019-04-25T13:50:19.372Z,23.70
2019-04-25T13:52:48.467Z,23.60
2019-04-25T13:55:18.686Z,23.60
2019-04-25T13:57:47.783Z,23.40
2019-04-25T14:00:24.740Z,23.30
2019-04-25T14:02:53.237Z,23.20
2019-04-25T14:05:24.920Z,23.20
2019-04-25T14:07:54.092Z,23.20
2019-04-25T14:10:25.102Z,23.30
2019-04-25T14:12:57.183Z,23.30
2019-04-25T14:15:29.624Z,23.20
2019-04-25T14:18:00.405Z,23.10
2019-04-25T14:20:51.312Z,23.10
2019-04-25T14:23:24.445Z,23.20
2019-04-25T14:25:53.699Z,23.30
2019-04-25T14:28:27.806Z,23.40
2019-04-25T14:30:56.088Z,23.60
2019-04-25T14:33:26.584Z,23.80
2019-04-25T14:35:56.120Z,23.90
2019-04-25T14:38:26.524Z,24.00
2019-04-25T14:40:55.848Z,24.10
2019-04-25T14:43:26.483Z,24.20
2019-04-25T14:45:57.456Z,24.20
2019-04-25T14:48:27.207Z,24.20
2019-04-25T14:50:57.560Z,24.20
2019-04-25T14:53:29.306Z,24.30
2019-04-25T14:56:03.012Z,24.30
2019-04-25T14:58:33.672Z,24.30
2019-04-25T15:01:05.195Z,24.20
2019-04-25T15:03:34.938Z,24.00
2019-04-25T15:06:04.201Z,23.90
2019-04-25T15:08:34.324Z,23.70
2019-04-25T15:11:05.598Z,23.60
2019-04-25T15:13:35.233Z,23.50
2019-04-25T15:16:08.951Z,23.40
2019-04-25T15:18:46.848Z,23.40
2019-04-25T15:21:11.373Z,23.40
2019-04-25T15:23:43.941Z,23.40
2019-04-25T15:26:13.035Z,23.40
2019-04-25T15:28:42.134Z,23.40
2019-04-25T15:31:11.352Z,23.50
2019-04-25T15:33:42.982Z,23.40
2019-04-25T15:36:19.757Z,23.40
2019-04-25T15:38:53.364Z,23.30
2019-04-25T15:41:23.982Z,23.20
2019-04-25T15:44:11.719Z,23.10
2019-04-25T15:46:42.454Z,23.00
2019-04-25T15:49:11.550Z,22.90
2019-04-25T15:51:40.543Z,22.80
2019-04-25T15:54:12.969Z,22.80
2019-04-25T15:56:42.110Z,22.60
2019-04-25T15:59:11.207Z,22.50
2019-04-25T16:01:40.305Z,22.50
2019-04-25T16:04:09.400Z,22.50
2019-04-25T16:06:38.589Z,22.50
2019-04-25T16:09:12.086Z,22.50
2019-04-25T16:11:41.182Z,22.50
2019-04-25T16:14:10.381Z,22.30
2019-04-25T16:16:39.476Z,22.30
2019-04-25T16:19:08.838Z,22.20
2019-04-25T16:21:37.973Z,22.10
2019-04-25T16:24:08.003Z,22.00
2019-04-25T16:26:42.394Z,21.80
2019-04-25T16:29:11.606Z,21.80
2019-04-25T16:31:41.189Z,21.70
2019-04-25T16:34:10.369Z,21.60
2019-04-25T16:36:39.722Z,21.50
2019-04-25T16:39:11.978Z,21.50
2019-04-25T16:41:41.682Z,21.40
2019-04-25T16:44:16.419Z,21.30
2019-04-25T16:46:48.881Z,21.30
2019-04-25T16:49:18.088Z,21.30
2019-04-25T16:51:47.437Z,21.30
2019-04-25T16:54:16.591Z,21.20
2019-04-25T16:56:47.707Z,21.20
2019-04-25T16:59:17.439Z,21.10
2019-04-25T17:01:47.048Z,21.10
2019-04-25T17:04:16.242Z,21.10
2019-04-25T17:06:45.435Z,21.10
2019-04-25T17:09:14.530Z,21.10
2019-04-25T17:11:43.527Z,21.00
2019-04-25T17:14:20.504Z,20.90
2019-04-25T17:17:06.597Z,20.90
2019-04-25T17:19:37.330Z,20.80
2019-04-25T17:22:06.424Z,20.70
2019-04-25T17:24:36.643Z,20.70
2019-04-25T17:27:07.246Z,20.60
2019-04-25T17:29:36.483Z,20.60
2019-04-25T17:32:07.203Z,20.50
2019-04-25T17:34:44.388Z,20.40
2019-04-25T17:37:21.933Z,20.40
2019-04-25T17:39:58.861Z,20.30
2019-04-25T17:42:27.954Z,20.30
2019-04-25T17:44:57.049Z,20.30
2019-04-25T17:47:26.143Z,20.20
2019-04-25T17:49:55.240Z,20.20
2019-04-25T17:52:24.332Z,20.10
2019-04-25T17:54:53.427Z,20.10
2019-04-25T17:57:22.522Z,20.00
2019-04-25T17:59:53.872Z,20.00
2019-04-25T18:02:23.169Z,19.90
2019-04-25T18:04:53.264Z,19.80
2019-04-25T18:07:22.384Z,19.80
2019-04-25T18:09:51.688Z,19.80
2019-04-25T18:12:20.803Z,19.70
2019-04-25T18:14:50.692Z,19.70
2019-04-25T18:17:19.787Z,19.70
2019-04-25T18:19:52.288Z,19.60
2019-04-25T18:22:25.758Z,19.60
2019-04-25T18:24:59.155Z,19.50
2019-04-25T18:27:44.309Z,19.50
2019-04-25T18:30:13.747Z,19.50
2019-04-25T18:32:44.370Z,19.50
2019-04-25T18:35:15.085Z,19.50
2019-04-25T18:37:48.457Z,19.50
2019-04-25T18:40:28.129Z,19.50
2019-04-25T18:43:13.631Z,19.50
2019-04-25T18:45:47.019Z,19.50
2019-04-25T18:48:16.099Z,19.40
2019-04-25T18:50:48.775Z,19.40
2019-04-25T18:53:28.320Z,19.30
2019-04-25T18:55:59.978Z,19.30
2019-04-25T18:58:36.439Z,19.30
2019-04-25T19:01:10.249Z,19.30
2019-04-25T19:03:55.725Z,19.30
2019-04-25T19:06:28.736Z,19.30
2019-04-25T19:08:57.911Z,19.30
2019-04-25T19:11:28.232Z,19.20
2019-04-25T19:13:57.328Z,19.20
2019-04-25T19:16:30.299Z,19.20
2019-04-25T19:18:59.409Z,19.10
2019-04-25T19:21:28.512Z,19.10
2019-04-25T19:23:58.413Z,19.10
2019-04-25T19:26:27.506Z,19.00
2019-04-25T19:28:59.572Z,18.90
2019-04-25T19:31:30.304Z,18.90
2019-04-25T19:33:59.401Z,18.80
2019-04-25T19:36:28.503Z,18.70
2019-04-25T19:38:57.589Z,18.60
2019-04-25T19:41:31.293Z,18.50
2019-04-25T19:44:04.687Z,18.40
2019-04-25T19:46:44.936Z,18.30
2019-04-25T19:49:18.137Z,18.20
2019-04-25T19:51:47.334Z,18.10
2019-04-25T19:54:17.411Z,18.10
2019-04-25T19:56:56.464Z,18.00
2019-04-25T19:59:25.881Z,17.90
2019-04-25T20:01:57.882Z,17.90
2019-04-25T20:04:45.470Z,17.80
2019-04-25T20:07:19.586Z,17.70
2019-04-25T20:09:54.489Z,17.70
2019-04-25T20:12:29.895Z,17.70
2019-04-25T20:14:59.671Z,17.70
2019-04-25T20:17:32.934Z,17.70
2019-04-25T20:20:02.169Z,17.60
2019-04-25T20:22:34.272Z,17.60
2019-04-25T20:25:04.400Z,17.60
2019-04-25T20:27:33.642Z,17.60
2019-04-25T20:30:05.975Z,17.60
2019-04-25T20:32:39.516Z,17.60
2019-04-25T20:35:09.153Z,17.60
2019-04-25T20:37:38.767Z,17.60
2019-04-25T20:40:09.189Z,17.50
2019-04-25T20:42:42.699Z,17.50
2019-04-25T20:45:12.744Z,17.40
2019-04-25T20:47:42.223Z,17.40
2019-04-25T20:50:15.375Z,17.40
2019-04-25T20:52:47.804Z,17.40
2019-04-25T20:55:18.732Z,17.40
2019-04-25T20:57:49.366Z,17.40
2019-04-25T21:00:40.006Z,17.30
2019-04-25T21:03:09.038Z,17.30
2019-04-25T21:05:38.226Z,17.20
2019-04-25T21:08:13.247Z,17.20
2019-04-25T21:10:45.090Z,17.10
2019-04-25T21:13:16.119Z,17.10
2019-04-25T21:15:56.180Z,17.00
2019-04-25T21:18:28.657Z,17.10
2019-04-25T21:20:59.397Z,17.00
2019-04-25T21:23:29.159Z,17.10
2019-04-25T21:25:59.860Z,17.00
2019-04-25T21:28:30.111Z,17.10
2019-04-25T21:31:02.447Z,17.10
2019-04-25T21:33:42.997Z,17.10
2019-04-25T21:36:12.779Z,17.10
2019-04-25T21:38:46.639Z,17.10
2019-04-25T21:41:38.348Z,17.10
2019-04-25T21:44:26.805Z,17.10
2019-04-25T21:47:00.854Z,17.10
2019-04-25T21:49:34.421Z,17.00
2019-04-25T21:52:03.481Z,17.00
2019-04-25T21:54:33.089Z,16.90
2019-04-25T21:57:20.617Z,16.80
2019-04-25T22:00:00.401Z,16.80
2019-04-25T22:02:20.802Z,16.70
2019-04-25T22:04:50.151Z,16.70
2019-04-25T22:07:19.552Z,16.60
2019-04-25T22:09:49.064Z,16.50
2019-04-25T22:12:21.130Z,16.50
2019-04-25T22:14:50.228Z,16.40
2019-04-25T22:17:19.317Z,16.30
2019-04-25T22:19:49.127Z,16.20
2019-04-25T22:22:18.671Z,16.10
2019-04-25T22:24:48.128Z,16.00
2019-04-25T22:27:18.870Z,16.00
2019-04-25T22:29:49.514Z,15.90
2019-04-25T22:32:25.970Z,15.80
2019-04-25T22:35:06.329Z,15.70
2019-04-25T22:37:35.520Z,15.70
2019-04-25T22:40:05.850Z,15.70
2019-04-25T22:42:34.941Z,15.60
2019-04-25T22:45:05.886Z,15.60
2019-04-25T22:47:35.077Z,15.60
2019-04-25T22:50:05.319Z,15.50
2019-04-25T22:52:38.959Z,15.50
2019-04-25T22:55:08.327Z,15.40
2019-04-25T22:57:38.723Z,15.40
2019-04-25T23:00:12.322Z,15.40
2019-04-25T23:02:43.284Z,15.40
2019-04-25T23:05:16.104Z,15.40
2019-04-25T23:07:44.548Z,15.30
2019-04-25T23:10:14.049Z,15.40
2019-04-25T23:12:43.635Z,15.40
2019-04-25T23:15:13.246Z,15.40
2019-04-25T23:17:42.514Z,15.50
2019-04-25T23:20:12.066Z,15.50
2019-04-25T23:22:41.084Z,15.50
2019-04-25T23:25:14.536Z,15.60
2019-04-25T23:27:47.829Z,15.60
2019-04-25T23:30:18.045Z,15.70
2019-04-25T23:32:48.082Z,15.70
2019-04-25T23:35:30.215Z,15.80
2019-04-25T23:37:51.580Z,15.80
2019-04-25T23:40:20.590Z,15.90
2019-04-25T23:42:49.767Z,15.90
2019-04-25T23:45:18.966Z,15.90
2019-04-25T23:47:51.696Z,15.90
2019-04-25T23:50:21.150Z,15.90
2019-04-25T23:52:50.243Z,16.00
2019-04-25T23:55:24.121Z,16.00
2019-04-25T23:57:51.607Z,16.00
